Terminal Aerodrome Forecast
Issued by NWS

Home | Current Version | Previous Version | Text Only | Print | Product List | Glossary Off
Versions: 1 2 3 4 5 6 7 8 9 10 11 12 13 14

000
FTUS41 KCLE 192335
TAFFDY
TAF
KFDY 192335Z 2000/2024 25007KT P6SM VCSH BKN050 OVC100
      TEMPO 2000/2002 3SM -TSRA OVC025CB
     FM200400 24007KT P6SM SCT050 BKN120
     FM201600 27014G20KT P6SM SCT050=

USA.gov is the U.S. government's official web portal to all federal, state and local government web resources and services.